Silverwood, Michigan
Current Conditions -  °F | °C
As of 12:14 PM on Sunday 21 Dec 2014 (Local Time) from KCFS Reporting Station
Overcast Overcast  
Wind Chill: 26°   Ceiling: 2400
Heat Index: 32°   Visibility: 10mi
Dew Point: 25°   Wind: 6mph
Humidity: 74%   Direction: 180°S
Pressure: 30.25"   Gusts: NA
Location:  43.32°N, 83.25°W
Report Text: KCFS 211714Z AUTO 18005KT 10SM BKN024 OVC055 00/M04 A3025 RMK AO2 T00001041
Loading
Personal Weather Stations






























Interactive Weather Map New forecast layout! Learn more

10-Day Weather Forecast

Advertisements
Track Severe Weather on mobile